sensor_id;sensor_type;location;lat;lon;timestamp;P1;durP1;ratioP1;P2;durP2;ratioP2
31004;SDS011;17676;52.254;4.490;2023-05-20T00:00:46;12.95;;;4.25;;
31004;SDS011;17676;52.254;4.490;2023-05-20T00:03:15;7.97;;;4.43;;
31004;SDS011;17676;52.254;4.490;2023-05-20T00:05:41;9.25;;;4.47;;
31004;SDS011;17676;52.254;4.490;2023-05-20T00:11:15;9.65;;;4.38;;
31004;SDS011;17676;52.254;4.490;2023-05-20T00:13:40;10.70;;;4.25;;
31004;SDS011;17676;52.254;4.490;2023-05-20T00:16:06;9.82;;;3.75;;
31004;SDS011;17676;52.254;4.490;2023-05-20T00:18:31;8.20;;;4.20;;
31004;SDS011;17676;52.254;4.490;2023-05-20T00:20:57;7.18;;;3.95;;
31004;SDS011;17676;52.254;4.490;2023-05-20T00:23:22;7.75;;;4.13;;
31004;SDS011;17676;52.254;4.490;2023-05-20T00:25:48;8.98;;;4.55;;
31004;SDS011;17676;52.254;4.490;2023-05-20T00:28:14;12.13;;;4.10;;
31004;SDS011;17676;52.254;4.490;2023-05-20T00:30:40;6.50;;;4.45;;
31004;SDS011;17676;52.254;4.490;2023-05-20T00:33:06;9.23;;;4.57;;
31004;SDS011;17676;52.254;4.490;2023-05-20T00:35:31;12.48;;;4.38;;
31004;SDS011;17676;52.254;4.490;2023-05-20T00:37:57;11.50;;;4.90;;
31004;SDS011;17676;52.254;4.490;2023-05-20T00:40:23;16.88;;;5.40;;
31004;SDS011;17676;52.254;4.490;2023-05-20T00:42:49;13.77;;;5.20;;
31004;SDS011;17676;52.254;4.490;2023-05-20T00:45:15;9.93;;;4.63;;
31004;SDS011;17676;52.254;4.490;2023-05-20T00:47:40;17.25;;;5.28;;
31004;SDS011;17676;52.254;4.490;2023-05-20T00:50:07;8.23;;;5.13;;
31004;SDS011;17676;52.254;4.490;2023-05-20T00:52:34;14.32;;;5.13;;
31004;SDS011;17676;52.254;4.490;2023-05-20T00:55:01;10.55;;;5.40;;
31004;SDS011;17676;52.254;4.490;2023-05-20T00:57:27;11.52;;;5.70;;
31004;SDS011;17676;52.254;4.490;2023-05-20T00:59:53;14.35;;;5.10;;
31004;SDS011;17676;52.254;4.490;2023-05-20T01:02:19;13.88;;;5.38;;
31004;SDS011;17676;52.254;4.490;2023-05-20T01:04:45;10.90;;;5.85;;
31004;SDS011;17676;52.254;4.490;2023-05-20T01:07:12;11.15;;;5.90;;
31004;SDS011;17676;52.254;4.490;2023-05-20T01:09:39;8.93;;;5.60;;
31004;SDS011;17676;52.254;4.490;2023-05-20T01:17:51;16.63;;;6.32;;
31004;SDS011;17676;52.254;4.490;2023-05-20T01:20:22;16.17;;;6.10;;
31004;SDS011;17676;52.254;4.490;2023-05-20T01:22:52;16.30;;;5.63;;
31004;SDS011;17676;52.254;4.490;2023-05-20T01:25:19;12.63;;;5.90;;
31004;SDS011;17676;52.254;4.490;2023-05-20T01:27:45;10.50;;;5.50;;
31004;SDS011;17676;52.254;4.490;2023-05-20T01:30:12;11.40;;;5.70;;
31004;SDS011;17676;52.254;4.490;2023-05-20T01:32:58;13.77;;;6.50;;
31004;SDS011;17676;52.254;4.490;2023-05-20T01:35:27;10.45;;;5.70;;
31004;SDS011;17676;52.254;4.490;2023-05-20T01:37:53;11.45;;;5.50;;
31004;SDS011;17676;52.254;4.490;2023-05-20T01:40:21;13.02;;;5.63;;
31004;SDS011;17676;52.254;4.490;2023-05-20T01:42:48;10.77;;;5.15;;
31004;SDS011;17676;52.254;4.490;2023-05-20T01:45:17;16.10;;;6.10;;
31004;SDS011;17676;52.254;4.490;2023-05-20T01:47:46;15.00;;;6.32;;
31004;SDS011;17676;52.254;4.490;2023-05-20T01:50:12;8.65;;;5.82;;
31004;SDS011;17676;52.254;4.490;2023-05-20T01:52:37;15.20;;;6.22;;
31004;SDS011;17676;52.254;4.490;2023-05-20T01:55:03;13.02;;;5.82;;
31004;SDS011;17676;52.254;4.490;2023-05-20T01:57:28;11.55;;;6.55;;
31004;SDS011;17676;52.254;4.490;2023-05-20T01:59:54;11.93;;;5.70;;
31004;SDS011;17676;52.254;4.490;2023-05-20T02:02:19;13.45;;;5.80;;
31004;SDS011;17676;52.254;4.490;2023-05-20T02:04:45;15.68;;;6.70;;
31004;SDS011;17676;52.254;4.490;2023-05-20T02:07:15;12.02;;;5.93;;
31004;SDS011;17676;52.254;4.490;2023-05-20T02:09:42;11.63;;;5.57;;
31004;SDS011;17676;52.254;4.490;2023-05-20T02:12:08;9.40;;;5.90;;
31004;SDS011;17676;52.254;4.490;2023-05-20T02:14:34;15.50;;;6.68;;
31004;SDS011;17676;52.254;4.490;2023-05-20T02:16:59;8.77;;;6.03;;
31004;SDS011;17676;52.254;4.490;2023-05-20T02:19:24;14.48;;;7.22;;
31004;SDS011;17676;52.254;4.490;2023-05-20T02:21:50;12.95;;;7.30;;
31004;SDS011;17676;52.254;4.490;2023-05-20T02:24:15;14.63;;;6.30;;
31004;SDS011;17676;52.254;4.490;2023-05-20T02:26:41;12.70;;;6.45;;
31004;SDS011;17676;52.254;4.490;2023-05-20T02:29:08;12.23;;;6.43;;
31004;SDS011;17676;52.254;4.490;2023-05-20T02:31:33;15.00;;;7.40;;
31004;SDS011;17676;52.254;4.490;2023-05-20T02:34:00;15.85;;;7.30;;
31004;SDS011;17676;52.254;4.490;2023-05-20T02:36:25;9.63;;;5.82;;
31004;SDS011;17676;52.254;4.490;2023-05-20T02:38:56;12.15;;;6.53;;
31004;SDS011;17676;52.254;4.490;2023-05-20T02:41:21;16.50;;;6.20;;
31004;SDS011;17676;52.254;4.490;2023-05-20T02:43:47;12.25;;;6.25;;
31004;SDS011;17676;52.254;4.490;2023-05-20T02:46:12;13.10;;;6.63;;
31004;SDS011;17676;52.254;4.490;2023-05-20T02:48:39;12.02;;;6.25;;
31004;SDS011;17676;52.254;4.490;2023-05-20T02:51:05;13.15;;;6.43;;
31004;SDS011;17676;52.254;4.490;2023-05-20T02:53:30;11.55;;;6.65;;
31004;SDS011;17676;52.254;4.490;2023-05-20T02:55:56;12.13;;;6.55;;
31004;SDS011;17676;52.254;4.490;2023-05-20T02:58:21;14.55;;;6.32;;
31004;SDS011;17676;52.254;4.490;2023-05-20T03:00:50;13.38;;;6.15;;
31004;SDS011;17676;52.254;4.490;2023-05-20T03:03:16;10.40;;;5.75;;
31004;SDS011;17676;52.254;4.490;2023-05-20T03:05:41;17.55;;;6.85;;
31004;SDS011;17676;52.254;4.490;2023-05-20T03:08:10;14.20;;;6.32;;
31004;SDS011;17676;52.254;4.490;2023-05-20T03:10:39;12.60;;;6.50;;
31004;SDS011;17676;52.254;4.490;2023-05-20T03:13:05;16.85;;;6.60;;
31004;SDS011;17676;52.254;4.490;2023-05-20T03:15:38;14.10;;;6.72;;
31004;SDS011;17676;52.254;4.490;2023-05-20T03:18:04;12.55;;;6.05;;
31004;SDS011;17676;52.254;4.490;2023-05-20T03:20:30;14.25;;;6.50;;
31004;SDS011;17676;52.254;4.490;2023-05-20T03:23:02;10.65;;;6.50;;
31004;SDS011;17676;52.254;4.490;2023-05-20T03:25:28;12.55;;;6.50;;
31004;SDS011;17676;52.254;4.490;2023-05-20T03:27:54;9.35;;;5.90;;
31004;SDS011;17676;52.254;4.490;2023-05-20T03:30:19;12.90;;;6.82;;
31004;SDS011;17676;52.254;4.490;2023-05-20T03:32:45;12.52;;;6.97;;
31004;SDS011;17676;52.254;4.490;2023-05-20T03:35:10;14.95;;;7.82;;
31004;SDS011;17676;52.254;4.490;2023-05-20T03:37:36;9.40;;;6.15;;
31004;SDS011;17676;52.254;4.490;2023-05-20T03:40:01;15.25;;;6.85;;
31004;SDS011;17676;52.254;4.490;2023-05-20T03:42:30;10.13;;;5.80;;
31004;SDS011;17676;52.254;4.490;2023-05-20T03:44:56;10.20;;;6.68;;
31004;SDS011;17676;52.254;4.490;2023-05-20T03:47:22;12.20;;;7.05;;
31004;SDS011;17676;52.254;4.490;2023-05-20T03:49:47;13.43;;;6.75;;
31004;SDS011;17676;52.254;4.490;2023-05-20T03:52:12;13.50;;;6.38;;
31004;SDS011;17676;52.254;4.490;2023-05-20T03:54:38;13.30;;;7.10;;
31004;SDS011;17676;52.254;4.490;2023-05-20T03:57:03;13.38;;;7.25;;
31004;SDS011;17676;52.254;4.490;2023-05-20T03:59:29;13.48;;;7.10;;
31004;SDS011;17676;52.254;4.490;2023-05-20T04:01:54;14.63;;;7.20;;
31004;SDS011;17676;52.254;4.490;2023-05-20T04:04:21;12.95;;;6.80;;
31004;SDS011;17676;52.254;4.490;2023-05-20T04:06:46;13.27;;;7.22;;
31004;SDS011;17676;52.254;4.490;2023-05-20T04:09:11;13.07;;;6.78;;
31004;SDS011;17676;52.254;4.490;2023-05-20T04:11:37;13.50;;;6.63;;
31004;SDS011;17676;52.254;4.490;2023-05-20T04:14:03;13.60;;;7.28;;
31004;SDS011;17676;52.254;4.490;2023-05-20T04:16:28;15.25;;;7.18;;
31004;SDS011;17676;52.254;4.490;2023-05-20T04:18:54;14.15;;;6.85;;
31004;SDS011;17676;52.254;4.490;2023-05-20T04:21:19;10.60;;;6.32;;
31004;SDS011;17676;52.254;4.490;2023-05-20T04:23:45;14.98;;;6.53;;
31004;SDS011;17676;52.254;4.490;2023-05-20T04:26:11;12.70;;;5.93;;
31004;SDS011;17676;52.254;4.490;2023-05-20T04:28:36;12.82;;;6.22;;
31004;SDS011;17676;52.254;4.490;2023-05-20T04:31:03;10.98;;;6.70;;
31004;SDS011;17676;52.254;4.490;2023-05-20T04:33:29;14.13;;;6.70;;
31004;SDS011;17676;52.254;4.490;2023-05-20T04:35:55;11.85;;;5.35;;
31004;SDS011;17676;52.254;4.490;2023-05-20T04:38:22;14.68;;;6.80;;
31004;SDS011;17676;52.254;4.490;2023-05-20T04:40:53;9.02;;;5.40;;
31004;SDS011;17676;52.254;4.490;2023-05-20T04:43:28;8.57;;;6.53;;
31004;SDS011;17676;52.254;4.490;2023-05-20T04:45:56;12.75;;;6.45;;
31004;SDS011;17676;52.254;4.490;2023-05-20T04:48:21;13.70;;;6.10;;
31004;SDS011;17676;52.254;4.490;2023-05-20T04:50:47;10.57;;;5.80;;
31004;SDS011;17676;52.254;4.490;2023-05-20T04:53:14;13.70;;;6.20;;
31004;SDS011;17676;52.254;4.490;2023-05-20T04:55:40;10.13;;;6.00;;
31004;SDS011;17676;52.254;4.490;2023-05-20T04:58:07;9.88;;;5.68;;
31004;SDS011;17676;52.254;4.490;2023-05-20T05:00:33;11.43;;;6.20;;
31004;SDS011;17676;52.254;4.490;2023-05-20T05:02:59;10.68;;;6.25;;
31004;SDS011;17676;52.254;4.490;2023-05-20T05:05:25;10.82;;;6.22;;
31004;SDS011;17676;52.254;4.490;2023-05-20T05:07:50;12.23;;;6.13;;
31004;SDS011;17676;52.254;4.490;2023-05-20T05:10:16;9.23;;;5.97;;
31004;SDS011;17676;52.254;4.490;2023-05-20T05:12:41;12.40;;;5.80;;
31004;SDS011;17676;52.254;4.490;2023-05-20T05:15:07;9.95;;;5.38;;
31004;SDS011;17676;52.254;4.490;2023-05-20T05:17:32;12.23;;;5.75;;
31004;SDS011;17676;52.254;4.490;2023-05-20T05:19:58;15.13;;;6.13;;
31004;SDS011;17676;52.254;4.490;2023-05-20T05:22:23;13.60;;;5.82;;
31004;SDS011;17676;52.254;4.490;2023-05-20T05:24:48;13.27;;;5.15;;
31004;SDS011;17676;52.254;4.490;2023-05-20T05:27:14;9.68;;;5.03;;
31004;SDS011;17676;52.254;4.490;2023-05-20T05:29:39;8.02;;;5.50;;
31004;SDS011;17676;52.254;4.490;2023-05-20T05:32:05;10.75;;;5.55;;
31004;SDS011;17676;52.254;4.490;2023-05-20T05:34:30;10.43;;;4.97;;
31004;SDS011;17676;52.254;4.490;2023-05-20T05:36:56;9.50;;;4.60;;
31004;SDS011;17676;52.254;4.490;2023-05-20T05:39:21;12.20;;;5.28;;
31004;SDS011;17676;52.254;4.490;2023-05-20T05:41:47;9.30;;;4.13;;
31004;SDS011;17676;52.254;4.490;2023-05-20T05:44:12;13.40;;;5.47;;
31004;SDS011;17676;52.254;4.490;2023-05-20T05:46:39;10.20;;;4.93;;
31004;SDS011;17676;52.254;4.490;2023-05-20T05:49:04;11.23;;;4.80;;
31004;SDS011;17676;52.254;4.490;2023-05-20T05:51:29;13.23;;;4.50;;
31004;SDS011;17676;52.254;4.490;2023-05-20T05:53:55;11.27;;;5.28;;
31004;SDS011;17676;52.254;4.490;2023-05-20T05:56:20;7.75;;;4.40;;
31004;SDS011;17676;52.254;4.490;2023-05-20T05:58:46;8.90;;;4.35;;
31004;SDS011;17676;52.254;4.490;2023-05-20T06:01:12;7.93;;;4.32;;
31004;SDS011;17676;52.254;4.490;2023-05-20T06:03:38;8.25;;;4.93;;
31004;SDS011;17676;52.254;4.490;2023-05-20T06:06:03;6.45;;;4.35;;
31004;SDS011;17676;52.254;4.490;2023-05-20T06:08:28;13.90;;;4.88;;
31004;SDS011;17676;52.254;4.490;2023-05-20T06:10:56;7.20;;;4.03;;
31004;SDS011;17676;52.254;4.490;2023-05-20T06:13:22;9.88;;;3.85;;
31004;SDS011;17676;52.254;4.490;2023-05-20T06:15:50;9.25;;;4.32;;
31004;SDS011;17676;52.254;4.490;2023-05-20T06:18:17;8.30;;;3.72;;
31004;SDS011;17676;52.254;4.490;2023-05-20T06:20:43;12.20;;;4.95;;
31004;SDS011;17676;52.254;4.490;2023-05-20T06:23:08;7.53;;;3.30;;
31004;SDS011;17676;52.254;4.490;2023-05-20T06:25:33;6.68;;;3.78;;
31004;SDS011;17676;52.254;4.490;2023-05-20T06:27:59;7.85;;;3.88;;
31004;SDS011;17676;52.254;4.490;2023-05-20T06:30:24;6.10;;;3.60;;
31004;SDS011;17676;52.254;4.490;2023-05-20T06:32:50;11.38;;;3.45;;
31004;SDS011;17676;52.254;4.490;2023-05-20T06:35:17;6.75;;;3.28;;
31004;SDS011;17676;52.254;4.490;2023-05-20T06:37:43;7.15;;;3.25;;
31004;SDS011;17676;52.254;4.490;2023-05-20T06:40:09;5.45;;;2.90;;
31004;SDS011;17676;52.254;4.490;2023-05-20T06:42:35;7.75;;;3.25;;
31004;SDS011;17676;52.254;4.490;2023-05-20T06:45:00;6.47;;;2.47;;
31004;SDS011;17676;52.254;4.490;2023-05-20T06:47:28;5.93;;;2.38;;
31004;SDS011;17676;52.254;4.490;2023-05-20T06:49:53;6.45;;;2.45;;
31004;SDS011;17676;52.254;4.490;2023-05-20T06:52:19;6.35;;;2.60;;
31004;SDS011;17676;52.254;4.490;2023-05-20T06:54:44;6.72;;;2.17;;
31004;SDS011;17676;52.254;4.490;2023-05-20T06:57:09;4.72;;;2.05;;
31004;SDS011;17676;52.254;4.490;2023-05-20T06:59:35;4.90;;;1.95;;
31004;SDS011;17676;52.254;4.490;2023-05-20T07:02:01;5.40;;;2.25;;
31004;SDS011;17676;52.254;4.490;2023-05-20T07:04:27;3.38;;;1.73;;
31004;SDS011;17676;52.254;4.490;2023-05-20T07:06:52;3.13;;;1.98;;
31004;SDS011;17676;52.254;4.490;2023-05-20T07:09:20;4.35;;;2.00;;
31004;SDS011;17676;52.254;4.490;2023-05-20T07:11:46;4.68;;;2.42;;
31004;SDS011;17676;52.254;4.490;2023-05-20T07:14:11;6.68;;;2.25;;
31004;SDS011;17676;52.254;4.490;2023-05-20T07:16:36;3.33;;;1.85;;
31004;SDS011;17676;52.254;4.490;2023-05-20T07:19:02;5.55;;;2.30;;
31004;SDS011;17676;52.254;4.490;2023-05-20T07:21:28;3.08;;;2.10;;
31004;SDS011;17676;52.254;4.490;2023-05-20T07:23:53;6.50;;;2.25;;
31004;SDS011;17676;52.254;4.490;2023-05-20T07:26:18;4.00;;;1.77;;
31004;SDS011;17676;52.254;4.490;2023-05-20T07:28:44;3.95;;;1.60;;
31004;SDS011;17676;52.254;4.490;2023-05-20T07:31:11;4.45;;;1.83;;
31004;SDS011;17676;52.254;4.490;2023-05-20T07:33:37;4.32;;;1.60;;
31004;SDS011;17676;52.254;4.490;2023-05-20T07:36:03;8.00;;;2.10;;
31004;SDS011;17676;52.254;4.490;2023-05-20T07:38:28;3.38;;;1.58;;
31004;SDS011;17676;52.254;4.490;2023-05-20T07:40:54;4.60;;;1.67;;
31004;SDS011;17676;52.254;4.490;2023-05-20T07:43:20;5.68;;;2.05;;
31004;SDS011;17676;52.254;4.490;2023-05-20T07:45:45;4.05;;;1.60;;
31004;SDS011;17676;52.254;4.490;2023-05-20T07:48:10;4.72;;;1.58;;
31004;SDS011;17676;52.254;4.490;2023-05-20T07:50:36;3.10;;;1.38;;
31004;SDS011;17676;52.254;4.490;2023-05-20T07:53:03;1.88;;;0.90;;
31004;SDS011;17676;52.254;4.490;2023-05-20T07:55:29;3.20;;;1.35;;
31004;SDS011;17676;52.254;4.490;2023-05-20T07:57:55;3.00;;;1.60;;
31004;SDS011;17676;52.254;4.490;2023-05-20T08:00:20;3.05;;;1.45;;
31004;SDS011;17676;52.254;4.490;2023-05-20T08:02:46;2.88;;;1.23;;
31004;SDS011;17676;52.254;4.490;2023-05-20T08:05:11;2.90;;;1.00;;
31004;SDS011;17676;52.254;4.490;2023-05-20T08:07:37;1.17;;;0.73;;
31004;SDS011;17676;52.254;4.490;2023-05-20T08:10:02;3.22;;;1.20;;
31004;SDS011;17676;52.254;4.490;2023-05-20T08:12:28;2.25;;;0.80;;
31004;SDS011;17676;52.254;4.490;2023-05-20T08:14:53;2.78;;;1.10;;
31004;SDS011;17676;52.254;4.490;2023-05-20T08:17:19;1.65;;;1.00;;
31004;SDS011;17676;52.254;4.490;2023-05-20T08:19:44;2.55;;;1.00;;
31004;SDS011;17676;52.254;4.490;2023-05-20T08:22:13;3.75;;;1.00;;
31004;SDS011;17676;52.254;4.490;2023-05-20T08:24:38;2.85;;;1.40;;
31004;SDS011;17676;52.254;4.490;2023-05-20T08:27:04;2.65;;;1.08;;
31004;SDS011;17676;52.254;4.490;2023-05-20T08:29:29;3.95;;;0.90;;
31004;SDS011;17676;52.254;4.490;2023-05-20T08:31:55;1.65;;;0.85;;
31004;SDS011;17676;52.254;4.490;2023-05-20T08:34:21;4.53;;;1.10;;
31004;SDS011;17676;52.254;4.490;2023-05-20T08:36:46;1.50;;;0.90;;
31004;SDS011;17676;52.254;4.490;2023-05-20T08:39:11;3.08;;;0.68;;
31004;SDS011;17676;52.254;4.490;2023-05-20T08:41:37;2.28;;;0.60;;
31004;SDS011;17676;52.254;4.490;2023-05-20T08:44:03;4.13;;;0.82;;
31004;SDS011;17676;52.254;4.490;2023-05-20T08:46:30;2.70;;;0.82;;
31004;SDS011;17676;52.254;4.490;2023-05-20T08:48:58;1.50;;;0.75;;
31004;SDS011;17676;52.254;4.490;2023-05-20T08:51:23;1.77;;;0.50;;
31004;SDS011;17676;52.254;4.490;2023-05-20T08:53:51;1.67;;;0.70;;
31004;SDS011;17676;52.254;4.490;2023-05-20T08:56:17;2.00;;;0.65;;
31004;SDS011;17676;52.254;4.490;2023-05-20T08:58:43;2.13;;;0.68;;
31004;SDS011;17676;52.254;4.490;2023-05-20T09:01:10;3.28;;;0.88;;
31004;SDS011;17676;52.254;4.490;2023-05-20T09:03:36;1.95;;;0.60;;
31004;SDS011;17676;52.254;4.490;2023-05-20T09:06:02;3.28;;;0.50;;
31004;SDS011;17676;52.254;4.490;2023-05-20T09:08:31;3.72;;;0.63;;
31004;SDS011;17676;52.254;4.490;2023-05-20T09:10:57;1.75;;;0.60;;
31004;SDS011;17676;52.254;4.490;2023-05-20T09:13:23;0.50;;;0.30;;
31004;SDS011;17676;52.254;4.490;2023-05-20T09:15:48;1.27;;;0.45;;
31004;SDS011;17676;52.254;4.490;2023-05-20T09:18:14;1.30;;;0.50;;
31004;SDS011;17676;52.254;4.490;2023-05-20T09:20:39;2.80;;;0.55;;
31004;SDS011;17676;52.254;4.490;2023-05-20T09:23:06;6.22;;;0.55;;
31004;SDS011;17676;52.254;4.490;2023-05-20T09:25:33;1.35;;;0.40;;
31004;SDS011;17676;52.254;4.490;2023-05-20T09:28:01;2.35;;;0.60;;
31004;SDS011;17676;52.254;4.490;2023-05-20T09:30:28;2.75;;;0.60;;
31004;SDS011;17676;52.254;4.490;2023-05-20T09:32:56;2.35;;;0.68;;
31004;SDS011;17676;52.254;4.490;2023-05-20T09:35:23;2.22;;;0.70;;
31004;SDS011;17676;52.254;4.490;2023-05-20T09:37:56;1.02;;;0.60;;
31004;SDS011;17676;52.254;4.490;2023-05-20T09:40:28;1.52;;;0.52;;
31004;SDS011;17676;52.254;4.490;2023-05-20T09:45:21;1.35;;;0.30;;
31004;SDS011;17676;52.254;4.490;2023-05-20T09:47:50;2.50;;;0.40;;
31004;SDS011;17676;52.254;4.490;2023-05-20T09:50:21;2.15;;;0.47;;
31004;SDS011;17676;52.254;4.490;2023-05-20T09:52:52;26.77;;;0.93;;
31004;SDS011;17676;52.254;4.490;2023-05-20T09:55:22;1.00;;;0.30;;
31004;SDS011;17676;52.254;4.490;2023-05-20T09:57:48;1.35;;;0.30;;
31004;SDS011;17676;52.254;4.490;2023-05-20T10:00:14;1.55;;;0.30;;
31004;SDS011;17676;52.254;4.490;2023-05-20T10:02:50;0.77;;;0.40;;
31004;SDS011;17676;52.254;4.490;2023-05-20T10:05:18;5.43;;;0.43;;
31004;SDS011;17676;52.254;4.490;2023-05-20T10:10:47;2.38;;;0.73;;
31004;SDS011;17676;52.254;4.490;2023-05-20T10:21:55;3.20;;;0.30;;
31004;SDS011;17676;52.254;4.490;2023-05-20T10:24:41;4.82;;;0.30;;
31004;SDS011;17676;52.254;4.490;2023-05-20T10:27:09;3.15;;;0.43;;
31004;SDS011;17676;52.254;4.490;2023-05-20T10:29:44;1.30;;;0.30;;
31004;SDS011;17676;52.254;4.490;2023-05-20T10:32:23;1.10;;;0.35;;
31004;SDS011;17676;52.254;4.490;2023-05-20T10:34:49;2.03;;;0.32;;
31004;SDS011;17676;52.254;4.490;2023-05-20T10:37:22;1.52;;;0.40;;
31004;SDS011;17676;52.254;4.490;2023-05-20T10:39:51;2.83;;;0.40;;
31004;SDS011;17676;52.254;4.490;2023-05-20T10:42:28;5.00;;;0.30;;
31004;SDS011;17676;52.254;4.490;2023-05-20T10:44:56;1.45;;;0.30;;
31004;SDS011;17676;52.254;4.490;2023-05-20T10:47:22;1.77;;;0.40;;
31004;SDS011;17676;52.254;4.490;2023-05-20T10:49:47;1.80;;;0.40;;
31004;SDS011;17676;52.254;4.490;2023-05-20T10:52:13;0.85;;;0.40;;
31004;SDS011;17676;52.254;4.490;2023-05-20T10:54:47;2.13;;;0.40;;
31004;SDS011;17676;52.254;4.490;2023-05-20T10:57:22;43.47;;;35.72;;
31004;SDS011;17676;52.254;4.490;2023-05-20T10:59:52;1.55;;;0.60;;
31004;SDS011;17676;52.254;4.490;2023-05-20T11:02:18;1.70;;;0.38;;
31004;SDS011;17676;52.254;4.490;2023-05-20T11:04:47;1.10;;;0.40;;
31004;SDS011;17676;52.254;4.490;2023-05-20T11:07:23;2.47;;;0.40;;
31004;SDS011;17676;52.254;4.490;2023-05-20T11:09:52;1.70;;;0.47;;
31004;SDS011;17676;52.254;4.490;2023-05-20T11:12:20;1.33;;;0.50;;
31004;SDS011;17676;52.254;4.490;2023-05-20T11:14:47;1.92;;;0.35;;
31004;SDS011;17676;52.254;4.490;2023-05-20T11:17:14;3.40;;;0.57;;
31004;SDS011;17676;52.254;4.490;2023-05-20T11:19:43;3.03;;;0.40;;
31004;SDS011;17676;52.254;4.490;2023-05-20T11:22:10;4.28;;;0.30;;
31004;SDS011;17676;52.254;4.490;2023-05-20T11:24:36;0.90;;;0.50;;
31004;SDS011;17676;52.254;4.490;2023-05-20T11:27:02;5.45;;;0.50;;
31004;SDS011;17676;52.254;4.490;2023-05-20T11:29:33;1.73;;;0.50;;
31004;SDS011;17676;52.254;4.490;2023-05-20T11:31:59;6.22;;;0.60;;
31004;SDS011;17676;52.254;4.490;2023-05-20T11:34:35;1.30;;;0.43;;
31004;SDS011;17676;52.254;4.490;2023-05-20T11:37:01;3.33;;;0.40;;
31004;SDS011;17676;52.254;4.490;2023-05-20T11:39:33;2.03;;;0.40;;
31004;SDS011;17676;52.254;4.490;2023-05-20T11:41:59;3.67;;;0.47;;
31004;SDS011;17676;52.254;4.490;2023-05-20T11:44:30;2.03;;;0.57;;
31004;SDS011;17676;52.254;4.490;2023-05-20T11:47:04;1.48;;;0.30;;
31004;SDS011;17676;52.254;4.490;2023-05-20T11:49:41;3.30;;;0.40;;
31004;SDS011;17676;52.254;4.490;2023-05-20T11:52:09;0.57;;;0.47;;
31004;SDS011;17676;52.254;4.490;2023-05-20T11:54:35;2.10;;;0.70;;
31004;SDS011;17676;52.254;4.490;2023-05-20T11:57:01;3.28;;;0.60;;
31004;SDS011;17676;52.254;4.490;2023-05-20T11:59:26;1.23;;;0.40;;
31004;SDS011;17676;52.254;4.490;2023-05-20T12:02:07;2.03;;;0.40;;
31004;SDS011;17676;52.254;4.490;2023-05-20T12:04:32;1.75;;;0.40;;
31004;SDS011;17676;52.254;4.490;2023-05-20T12:06:58;1.92;;;0.40;;
31004;SDS011;17676;52.254;4.490;2023-05-20T12:09:34;3.17;;;0.77;;
31004;SDS011;17676;52.254;4.490;2023-05-20T12:12:01;1.98;;;0.40;;
31004;SDS011;17676;52.254;4.490;2023-05-20T12:14:26;2.28;;;0.38;;
31004;SDS011;17676;52.254;4.490;2023-05-20T12:16:55;1.95;;;0.40;;
31004;SDS011;17676;52.254;4.490;2023-05-20T12:19:20;2.70;;;0.50;;
31004;SDS011;17676;52.254;4.490;2023-05-20T12:21:46;1.30;;;0.40;;
31004;SDS011;17676;52.254;4.490;2023-05-20T12:24:14;1.63;;;0.32;;
31004;SDS011;17676;52.254;4.490;2023-05-20T12:26:39;2.97;;;0.60;;
31004;SDS011;17676;52.254;4.490;2023-05-20T12:29:07;4.03;;;0.50;;
31004;SDS011;17676;52.254;4.490;2023-05-20T12:31:42;3.47;;;0.80;;
31004;SDS011;17676;52.254;4.490;2023-05-20T12:34:10;5.47;;;0.45;;
31004;SDS011;17676;52.254;4.490;2023-05-20T12:36:36;2.65;;;0.40;;
31004;SDS011;17676;52.254;4.490;2023-05-20T12:39:04;2.75;;;0.40;;
31004;SDS011;17676;52.254;4.490;2023-05-20T12:41:31;2.42;;;0.40;;
31004;SDS011;17676;52.254;4.490;2023-05-20T12:44:02;2.78;;;0.60;;
31004;SDS011;17676;52.254;4.490;2023-05-20T12:46:37;2.42;;;0.50;;
31004;SDS011;17676;52.254;4.490;2023-05-20T12:49:05;2.47;;;0.43;;
31004;SDS011;17676;52.254;4.490;2023-05-20T12:51:37;1.65;;;0.50;;
31004;SDS011;17676;52.254;4.490;2023-05-20T12:54:02;1.75;;;0.52;;
31004;SDS011;17676;52.254;4.490;2023-05-20T12:56:28;1.35;;;0.60;;
31004;SDS011;17676;52.254;4.490;2023-05-20T12:58:54;3.50;;;0.50;;
31004;SDS011;17676;52.254;4.490;2023-05-20T13:01:19;6.05;;;0.57;;
31004;SDS011;17676;52.254;4.490;2023-05-20T13:03:45;2.42;;;0.50;;
31004;SDS011;17676;52.254;4.490;2023-05-20T13:06:14;4.20;;;0.57;;
31004;SDS011;17676;52.254;4.490;2023-05-20T13:08:49;1.67;;;0.50;;
31004;SDS011;17676;52.254;4.490;2023-05-20T13:11:18;1.45;;;0.50;;
31004;SDS011;17676;52.254;4.490;2023-05-20T13:13:43;10.63;;;0.60;;
31004;SDS011;17676;52.254;4.490;2023-05-20T13:16:12;3.92;;;0.60;;
31004;SDS011;17676;52.254;4.490;2023-05-20T13:18:44;0.47;;;0.47;;
31004;SDS011;17676;52.254;4.490;2023-05-20T13:21:10;3.50;;;0.75;;
31004;SDS011;17676;52.254;4.490;2023-05-20T13:23:36;0.93;;;0.57;;
31004;SDS011;17676;52.254;4.490;2023-05-20T13:26:09;4.68;;;0.43;;
31004;SDS011;17676;52.254;4.490;2023-05-20T13:28:35;2.95;;;0.50;;
31004;SDS011;17676;52.254;4.490;2023-05-20T13:31:01;1.02;;;0.52;;
31004;SDS011;17676;52.254;4.490;2023-05-20T13:33:28;3.53;;;0.38;;
31004;SDS011;17676;52.254;4.490;2023-05-20T13:35:54;1.83;;;0.45;;
31004;SDS011;17676;52.254;4.490;2023-05-20T13:38:20;2.85;;;0.50;;
31004;SDS011;17676;52.254;4.490;2023-05-20T13:40:45;0.77;;;0.40;;
31004;SDS011;17676;52.254;4.490;2023-05-20T13:43:11;1.35;;;0.60;;
31004;SDS011;17676;52.254;4.490;2023-05-20T13:45:36;1.95;;;0.40;;
31004;SDS011;17676;52.254;4.490;2023-05-20T13:48:02;0.57;;;0.30;;
31004;SDS011;17676;52.254;4.490;2023-05-20T13:50:27;0.88;;;0.30;;
31004;SDS011;17676;52.254;4.490;2023-05-20T13:52:53;1.75;;;0.50;;
31004;SDS011;17676;52.254;4.490;2023-05-20T13:55:18;2.83;;;0.57;;
31004;SDS011;17676;52.254;4.490;2023-05-20T13:57:44;2.20;;;0.50;;
31004;SDS011;17676;52.254;4.490;2023-05-20T14:00:09;1.85;;;0.57;;
31004;SDS011;17676;52.254;4.490;2023-05-20T14:02:35;2.60;;;0.70;;
31004;SDS011;17676;52.254;4.490;2023-05-20T14:05:01;2.97;;;0.40;;
31004;SDS011;17676;52.254;4.490;2023-05-20T14:07:26;4.45;;;0.60;;
31004;SDS011;17676;52.254;4.490;2023-05-20T14:09:52;4.47;;;0.50;;
31004;SDS011;17676;52.254;4.490;2023-05-20T14:12:17;1.23;;;0.52;;
31004;SDS011;17676;52.254;4.490;2023-05-20T14:14:42;3.25;;;0.38;;
31004;SDS011;17676;52.254;4.490;2023-05-20T14:17:08;2.97;;;0.40;;
31004;SDS011;17676;52.254;4.490;2023-05-20T14:19:33;2.13;;;0.40;;
31004;SDS011;17676;52.254;4.490;2023-05-20T14:21:59;6.63;;;0.50;;
31004;SDS011;17676;52.254;4.490;2023-05-20T14:24:25;4.38;;;0.30;;
31004;SDS011;17676;52.254;4.490;2023-05-20T14:26:51;2.90;;;0.30;;
31004;SDS011;17676;52.254;4.490;2023-05-20T14:29:17;2.65;;;0.30;;
31004;SDS011;17676;52.254;4.490;2023-05-20T14:31:42;3.70;;;0.60;;
31004;SDS011;17676;52.254;4.490;2023-05-20T14:34:08;1.40;;;0.38;;
31004;SDS011;17676;52.254;4.490;2023-05-20T14:36:34;1.60;;;0.40;;
31004;SDS011;17676;52.254;4.490;2023-05-20T14:39:00;0.88;;;0.40;;
31004;SDS011;17676;52.254;4.490;2023-05-20T14:41:25;0.40;;;0.40;;
31004;SDS011;17676;52.254;4.490;2023-05-20T14:43:54;3.42;;;0.60;;
31004;SDS011;17676;52.254;4.490;2023-05-20T14:46:19;1.48;;;0.30;;
31004;SDS011;17676;52.254;4.490;2023-05-20T14:48:45;2.25;;;0.40;;
31004;SDS011;17676;52.254;4.490;2023-05-20T14:51:10;1.90;;;0.40;;
31004;SDS011;17676;52.254;4.490;2023-05-20T14:53:36;6.80;;;0.40;;
31004;SDS011;17676;52.254;4.490;2023-05-20T14:56:02;6.32;;;0.73;;
31004;SDS011;17676;52.254;4.490;2023-05-20T14:58:27;1.38;;;1.00;;
31004;SDS011;17676;52.254;4.490;2023-05-20T15:00:53;2.55;;;0.60;;
31004;SDS011;17676;52.254;4.490;2023-05-20T15:03:18;2.28;;;0.38;;